Time;durP1;ratioP1;P1;durP2;ratioP2;P2;SDS_P1;SDS_P2;PMS_P1;PMS_P2;Temp;Humidity;BMP_temperature;BMP_pressure;BME280_temperature;BME280_humidity;BME280_pressure;Samples;Min_cycle;Max_cycle;Signal;HPM_P1;HPM_P2
2022/06/22 00:00:42;;;;;;;0.00;0.00;;;22.10;60.60;;;;;;4159078;28;20068;-62
2022/06/22 00:03:08;;;;;;;0.00;0.00;;;22.10;60.60;;;;;;4167541;28;20084;-62
2022/06/22 00:05:35;;;;;;;0.43;0.43;;;22.10;60.70;;;;;;4192565;28;20568;-62
2022/06/22 00:08:03;;;;;;;0.10;0.10;;;22.10;60.60;;;;;;4192052;28;20104;-63
2022/06/22 00:10:32;;;;;;;0.00;0.00;;;22.10;60.60;;;;;;4190397;28;20517;-62
2022/06/22 00:12:57;;;;;;;0.00;0.00;;;22.10;60.60;;;;;;4192526;28;20057;-62
2022/06/22 00:15:27;;;;;;;0.00;0.00;;;22.10;60.60;;;;;;4192526;28;20052;-62
2022/06/22 00:17:49;;;;;;;0.00;0.00;;;22.00;60.60;;;;;;4192370;28;20127;-62
2022/06/22 00:20:21;;;;;;;0.00;0.00;;;22.00;60.60;;;;;;4192218;28;20098;-62
2022/06/22 00:22:49;;;;;;;2.42;1.38;;;22.00;60.60;;;;;;4192034;28;20074;-62
2022/06/22 00:25:21;;;;;;;1.10;1.08;;;22.00;60.60;;;;;;4192363;28;20059;-62
2022/06/22 00:27:43;;;;;;;0.00;0.00;;;22.00;60.60;;;;;;4190764;28;20060;-62
2022/06/22 00:30:22;;;;;;;0.00;0.00;;;22.00;60.60;;;;;;4190827;28;20078;-61
2022/06/22 00:33:16;;;;;;;0.80;0.80;;;22.00;60.60;;;;;;4192231;28;20044;-62
2022/06/22 00:35:48;;;;;;;0.00;0.00;;;22.00;60.70;;;;;;4191990;28;20102;-62
2022/06/22 00:38:15;;;;;;;0.00;0.00;;;21.90;60.60;;;;;;4191647;28;20515;-62
2022/06/22 00:40:39;;;;;;;0.00;0.00;;;21.90;60.70;;;;;;4192222;28;20056;-62
2022/06/22 00:43:01;;;;;;;0.00;0.00;;;21.90;60.70;;;;;;4191907;28;20067;-61
2022/06/22 00:45:26;;;;;;;0.63;0.32;;;21.90;60.80;;;;;;4190504;28;20087;-62
2022/06/22 00:47:57;;;;;;;0.85;0.85;;;21.90;60.90;;;;;;4191630;28;20075;-62
2022/06/22 00:50:23;;;;;;;0.00;0.00;;;21.90;60.80;;;;;;4158711;28;20054;-61
2022/06/22 00:52:48;;;;;;;0.20;0.20;;;21.90;60.80;;;;;;4161388;28;20049;-62
2022/06/22 00:55:24;;;;;;;0.10;0.10;;;21.90;60.90;;;;;;4161790;28;20059;-62
2022/06/22 00:57:54;;;;;;;0.17;0.17;;;21.90;61.00;;;;;;4203449;28;20044;-62
2022/06/22 01:00:20;;;;;;;0.00;0.00;;;21.90;61.00;;;;;;4178083;28;20071;-62
2022/06/22 01:02:49;;;;;;;0.10;0.10;;;21.90;61.00;;;;;;4205405;28;20048;-62
2022/06/22 01:05:19;;;;;;;0.00;0.00;;;21.90;61.00;;;;;;4184688;28;20103;-62
2022/06/22 01:07:46;;;;;;;0.00;0.00;;;21.90;60.90;;;;;;4194830;28;20094;-62
2022/06/22 01:10:12;;;;;;;0.00;0.00;;;21.80;60.90;;;;;;4193424;28;20055;-63
2022/06/22 01:12:41;;;;;;;0.00;0.00;;;21.80;60.80;;;;;;4193449;28;20040;-63
2022/06/22 01:15:12;;;;;;;0.00;0.00;;;21.80;60.90;;;;;;4161344;28;20131;-62
2022/06/22 01:17:38;;;;;;;0.10;0.10;;;21.80;60.80;;;;;;4161398;28;20408;-62
2022/06/22 01:20:10;;;;;;;0.00;0.00;;;21.80;60.80;;;;;;4161100;28;20124;-62
2022/06/22 01:22:51;;;;;;;0.20;0.20;;;21.80;60.80;;;;;;4188801;27;20049;-61
2022/06/22 01:25:50;;;;;;;0.40;0.40;;;21.80;60.80;;;;;;4193916;28;20071;-61
2022/06/22 01:28:14;;;;;;;0.00;0.00;;;21.70;60.80;;;;;;4183825;28;20564;-61
2022/06/22 01:30:40;;;;;;;0.10;0.10;;;21.80;60.80;;;;;;4193589;28;20776;-61
2022/06/22 01:33:07;;;;;;;0.10;0.10;;;21.80;60.80;;;;;;4195365;28;20048;-61
2022/06/22 01:35:32;;;;;;;0.45;0.45;;;21.70;60.70;;;;;;4178586;28;20627;-61
2022/06/22 01:37:55;;;;;;;0.00;0.00;;;21.80;60.70;;;;;;4160898;28;20247;-61
2022/06/22 01:40:20;;;;;;;0.00;0.00;;;21.70;60.60;;;;;;4161640;28;20539;-61
2022/06/22 01:42:49;;;;;;;0.00;0.00;;;21.70;60.60;;;;;;4161596;28;20045;-62
2022/06/22 01:45:21;;;;;;;0.38;0.38;;;21.70;60.60;;;;;;4161296;28;20103;-63
2022/06/22 01:47:51;;;;;;;0.00;0.00;;;21.70;60.60;;;;;;4161388;28;20045;-62
2022/06/22 01:50:22;;;;;;;0.20;0.20;;;21.70;60.60;;;;;;4170504;28;20044;-63
2022/06/22 01:52:52;;;;;;;0.00;0.00;;;21.70;61.50;;;;;;4196497;28;20127;-61
2022/06/22 01:55:22;;;;;;;0.00;0.00;;;21.70;60.60;;;;;;4198217;28;20050;-62
2022/06/22 01:57:51;;;;;;;0.00;0.00;;;21.60;61.40;;;;;;4196081;28;20475;-61
2022/06/22 02:00:18;;;;;;;0.00;0.00;;;21.60;60.50;;;;;;4192698;28;20051;-62
2022/06/22 02:02:45;;;;;;;0.00;0.00;;;21.60;60.60;;;;;;4194169;27;20098;-61
2022/06/22 02:05:18;;;;;;;0.00;0.00;;;21.60;60.50;;;;;;4194204;28;20075;-61
2022/06/22 02:07:45;;;;;;;0.25;0.25;;;21.60;60.50;;;;;;4193778;28;20080;-61
2022/06/22 02:10:20;;;;;;;0.10;0.10;;;21.60;60.60;;;;;;4194295;28;20052;-61
2022/06/22 02:12:48;;;;;;;0.00;0.00;;;21.60;60.60;;;;;;4192504;28;20051;-61
2022/06/22 02:15:19;;;;;;;0.00;0.00;;;21.60;60.60;;;;;;4194088;28;20056;-61
2022/06/22 02:17:44;;;;;;;0.00;0.00;;;21.50;60.40;;;;;;4193762;28;20053;-61
2022/06/22 02:20:34;;;;;;;0.00;0.00;;;21.50;60.40;;;;;;4194149;28;20098;-61
2022/06/22 02:23:01;;;;;;;0.00;0.00;;;21.50;60.40;;;;;;4191694;28;20070;-61
2022/06/22 02:25:25;;;;;;;0.00;0.00;;;21.50;60.40;;;;;;4193694;28;20151;-62
2022/06/22 02:27:48;;;;;;;0.00;0.00;;;21.50;60.40;;;;;;4193710;28;20117;-62
2022/06/22 02:30:11;;;;;;;0.20;0.20;;;21.50;60.40;;;;;;4193319;28;20048;-61
2022/06/22 02:32:38;;;;;;;0.00;0.00;;;21.50;60.40;;;;;;4160929;28;20052;-62
2022/06/22 02:35:00;;;;;;;0.00;0.00;;;21.50;60.40;;;;;;4160811;28;20033;-62
2022/06/22 02:37:27;;;;;;;0.10;0.10;;;21.40;60.40;;;;;;4160707;28;20052;-62
2022/06/22 02:39:53;;;;;;;0.00;0.00;;;21.40;60.30;;;;;;4160926;28;20420;-61
2022/06/22 02:44:55;;;;;;;0.00;0.00;;;21.50;60.40;;;;;;4173115;28;20483;-62
2022/06/22 02:47:22;;;;;;;0.00;0.00;;;21.40;60.40;;;;;;4193637;28;20048;-61
2022/06/22 02:49:51;;;;;;;0.17;0.17;;;21.40;60.40;;;;;;4193585;28;20049;-62
2022/06/22 02:52:16;;;;;;;0.00;0.00;;;21.40;60.40;;;;;;4192544;28;20411;-61
2022/06/22 02:54:44;;;;;;;0.43;0.35;;;21.40;60.40;;;;;;4192737;28;20082;-62
2022/06/22 02:57:15;;;;;;;0.00;0.00;;;21.40;60.30;;;;;;4193116;28;20052;-62
2022/06/22 02:59:38;;;;;;;0.00;0.00;;;21.30;60.30;;;;;;4193512;28;20407;-61
2022/06/22 03:02:00;;;;;;;0.30;0.30;;;21.40;60.30;;;;;;4193716;28;20079;-61
2022/06/22 03:04:24;;;;;;;0.00;0.00;;;21.40;60.40;;;;;;4193159;28;20059;-61
2022/06/22 03:06:50;;;;;;;0.00;0.00;;;21.40;60.40;;;;;;4193038;28;20094;-62
2022/06/22 03:09:13;;;;;;;0.00;0.00;;;21.40;60.30;;;;;;4192349;28;20056;-61
2022/06/22 03:11:38;;;;;;;0.00;0.00;;;21.40;60.40;;;;;;4192287;28;20083;-61
2022/06/22 03:14:18;;;;;;;0.00;0.00;;;21.30;60.30;;;;;;4191262;28;20415;-61
2022/06/22 03:16:43;;;;;;;0.00;0.00;;;21.30;60.30;;;;;;4160015;28;20056;-61
2022/06/22 03:19:09;;;;;;;0.00;0.00;;;21.30;60.30;;;;;;4187219;28;20438;-61
2022/06/22 03:21:32;;;;;;;0.00;0.00;;;21.30;60.30;;;;;;4160026;28;20083;-62
2022/06/22 03:24:02;;;;;;;0.20;0.20;;;21.30;60.30;;;;;;4189212;28;20044;-61
2022/06/22 03:26:28;;;;;;;0.10;0.10;;;21.30;60.30;;;;;;4192747;28;20055;-61
2022/06/22 03:28:57;;;;;;;0.00;0.00;;;21.20;60.30;;;;;;4191596;28;20095;-61
2022/06/22 03:31:23;;;;;;;0.00;0.00;;;21.30;60.40;;;;;;4193006;28;20131;-61
2022/06/22 03:33:50;;;;;;;0.00;0.00;;;21.20;60.30;;;;;;4191184;28;20114;-61
2022/06/22 03:36:17;;;;;;;0.00;0.00;;;21.20;60.30;;;;;;4192651;28;20106;-61
2022/06/22 03:38:47;;;;;;;0.00;0.00;;;21.20;60.40;;;;;;4191953;28;20044;-61
2022/06/22 03:41:14;;;;;;;0.00;0.00;;;21.20;60.40;;;;;;4192804;28;20080;-62
2022/06/22 03:43:43;;;;;;;0.00;0.00;;;21.20;60.40;;;;;;4192500;28;20135;-61
2022/06/22 03:46:10;;;;;;;0.08;0.08;;;21.20;60.30;;;;;;4191010;28;20044;-61
2022/06/22 03:48:41;;;;;;;0.00;0.00;;;21.20;60.40;;;;;;4192511;28;20093;-61
2022/06/22 03:51:10;;;;;;;0.00;0.00;;;21.20;60.40;;;;;;4192231;28;20065;-61
2022/06/22 03:53:38;;;;;;;0.00;0.00;;;21.10;60.30;;;;;;4192831;28;20151;-61
2022/06/22 03:56:05;;;;;;;0.08;0.08;;;21.10;60.30;;;;;;4192977;28;20450;-61
2022/06/22 03:58:29;;;;;;;0.00;0.00;;;21.10;60.30;;;;;;4192487;28;20147;-61
2022/06/22 04:00:51;;;;;;;0.00;0.00;;;21.10;60.30;;;;;;4159865;28;20496;-61
2022/06/22 04:03:16;;;;;;;0.00;0.00;;;21.10;60.30;;;;;;4159804;28;20057;-61
2022/06/22 04:05:42;;;;;;;0.00;0.00;;;21.00;60.30;;;;;;4159737;28;20127;-61
2022/06/22 04:08:05;;;;;;;0.00;0.00;;;21.10;60.30;;;;;;4189242;28;20517;-62
2022/06/22 04:10:38;;;;;;;0.10;0.10;;;21.00;60.30;;;;;;4192616;28;20040;-61
2022/06/22 04:13:04;;;;;;;0.20;0.20;;;21.00;60.30;;;;;;4190550;28;20458;-62
2022/06/22 04:15:33;;;;;;;0.03;0.03;;;21.00;60.30;;;;;;4193664;28;20056;-60
2022/06/22 04:17:59;;;;;;;0.00;0.00;;;20.90;60.20;;;;;;4190658;28;20059;-61
2022/06/22 04:20:25;;;;;;;0.00;0.00;;;21.00;60.30;;;;;;4192366;28;20501;-61
2022/06/22 04:22:52;;;;;;;0.00;0.00;;;21.00;60.30;;;;;;4192393;28;20407;-61
2022/06/22 04:25:27;;;;;;;0.00;0.00;;;21.00;60.30;;;;;;4192643;28;20055;-62
2022/06/22 04:27:52;;;;;;;0.00;0.00;;;21.00;60.30;;;;;;4193826;28;20044;-61
2022/06/22 04:30:20;;;;;;;0.00;0.00;;;21.00;60.30;;;;;;4196011;28;20127;-62
2022/06/22 04:32:55;;;;;;;0.00;0.00;;;21.00;60.30;;;;;;4195102;28;20086;-62
2022/06/22 04:35:28;;;;;;;0.00;0.00;;;21.00;60.40;;;;;;4194847;28;20499;-61
2022/06/22 04:37:56;;;;;;;0.00;0.00;;;21.00;60.40;;;;;;4195294;28;20052;-61
2022/06/22 04:40:22;;;;;;;0.00;0.00;;;21.00;60.30;;;;;;4195898;28;20044;-61
2022/06/22 04:42:45;;;;;;;0.00;0.00;;;21.00;60.30;;;;;;4195613;28;20052;-67
2022/06/22 04:45:10;;;;;;;0.10;0.10;;;21.00;60.30;;;;;;4195830;28;20070;-67
2022/06/22 04:47:35;;;;;;;0.13;0.13;;;21.00;60.30;;;;;;4194119;28;20511;-66
2022/06/22 04:50:03;;;;;;;0.20;0.20;;;21.00;60.30;;;;;;4195011;28;20131;-66
2022/06/22 04:52:30;;;;;;;0.00;0.00;;;21.10;60.50;;;;;;4194404;28;20080;-70
2022/06/22 04:54:57;;;;;;;0.22;0.20;;;21.10;61.00;;;;;;4194321;28;20131;-69
2022/06/22 04:57:22;;;;;;;1.13;0.75;;;21.10;60.90;;;;;;4194646;28;20048;-69
2022/06/22 04:59:45;;;;;;;0.17;0.17;;;21.20;60.80;;;;;;4195243;28;20147;-69
2022/06/22 05:02:12;;;;;;;0.00;0.00;;;21.20;60.60;;;;;;4194705;28;20139;-69
2022/06/22 05:04:37;;;;;;;0.00;0.00;;;21.20;60.60;;;;;;4195203;28;20036;-69
2022/06/22 05:07:08;;;;;;;0.00;0.00;;;21.20;60.60;;;;;;4194425;27;20457;-69
2022/06/22 05:09:36;;;;;;;0.00;0.00;;;21.20;60.50;;;;;;4195917;28;20075;-70
2022/06/22 05:11:58;;;;;;;0.10;0.10;;;21.20;60.60;;;;;;4194463;28;20135;-70
2022/06/22 05:14:25;;;;;;;0.00;0.00;;;21.20;60.70;;;;;;4195046;28;20126;-71
2022/06/22 05:17:03;;;;;;;0.00;0.00;;;21.20;60.70;;;;;;4194281;28;20078;-72
2022/06/22 05:19:39;;;;;;;0.00;0.00;;;21.10;60.60;;;;;;4194018;28;20051;-72
2022/06/22 05:22:13;;;;;;;0.00;0.00;;;21.20;60.90;;;;;;4194375;28;20044;-72
2022/06/22 05:24:38;;;;;;;18.83;0.65;;;21.20;61.00;;;;;;4194170;28;20055;-71
2022/06/22 05:27:05;;;;;;;0.00;0.00;;;21.30;60.90;;;;;;4161762;28;20061;-71
2022/06/22 05:29:33;;;;;;;0.00;0.00;;;21.40;60.70;;;;;;4161635;28;20409;-70
2022/06/22 05:31:59;;;;;;;0.00;0.00;;;21.50;60.40;;;;;;4161747;28;20053;-71
2022/06/22 05:34:25;;;;;;;0.00;0.00;;;21.60;60.20;;;;;;4182783;28;20479;-71
2022/06/22 05:36:54;;;;;;;0.05;0.05;;;21.70;59.90;;;;;;4193337;28;20098;-69
2022/06/22 05:39:17;;;;;;;0.00;0.00;;;21.70;59.70;;;;;;4194072;28;20057;-69
2022/06/22 05:41:43;;;;;;;0.20;0.20;;;21.80;59.60;;;;;;4193978;28;20232;-69
2022/06/22 05:44:08;;;;;;;0.00;0.00;;;21.80;59.50;;;;;;4194676;28;20121;-68
2022/06/22 05:46:30;;;;;;;0.00;0.00;;;21.90;59.30;;;;;;4161435;28;20053;-68
2022/06/22 05:48:55;;;;;;;0.00;0.00;;;21.90;59.20;;;;;;4161194;28;20099;-69
2022/06/22 05:51:21;;;;;;;0.00;0.00;;;22.00;59.10;;;;;;4188276;28;20101;-68
2022/06/22 05:53:47;;;;;;;0.00;0.00;;;21.90;59.10;;;;;;4188153;28;20045;-68
2022/06/22 05:56:18;;;;;;;0.00;0.00;;;21.90;59.10;;;;;;4161252;28;20080;-68
2022/06/22 05:58:50;;;;;;;0.10;0.10;;;21.90;59.10;;;;;;4164235;28;20052;-68
2022/06/22 06:01:20;;;;;;;0.00;0.00;;;21.90;59.20;;;;;;4194239;28;20052;-68
2022/06/22 06:03:50;;;;;;;0.00;0.00;;;21.90;60.10;;;;;;4191414;28;20473;-68
2022/06/22 06:06:19;;;;;;;10.23;1.25;;;21.90;59.50;;;;;;4193818;28;20114;-68
2022/06/22 06:08:44;;;;;;;0.00;0.00;;;21.80;59.50;;;;;;4194407;28;20052;-68
2022/06/22 06:11:07;;;;;;;0.90;0.90;;;21.80;59.60;;;;;;4193499;28;20060;-68
2022/06/22 06:13:34;;;;;;;0.00;0.00;;;21.80;59.60;;;;;;4192593;28;20083;-68
2022/06/22 06:15:59;;;;;;;0.10;0.10;;;21.80;59.70;;;;;;4194462;28;20043;-69
2022/06/22 06:18:29;;;;;;;3.33;1.90;;;21.80;59.70;;;;;;4193757;28;20478;-69
2022/06/22 06:20:57;;;;;;;0.00;0.00;;;21.90;60.50;;;;;;4193942;28;20059;-69
2022/06/22 06:23:23;;;;;;;0.28;0.28;;;21.90;59.60;;;;;;4193389;28;20055;-69
2022/06/22 06:28:44;;;;;;;0.00;0.00;;;21.90;59.50;;;;;;4193417;28;20051;-69
2022/06/22 06:31:12;;;;;;;0.00;0.00;;;22.00;59.50;;;;;;4191979;28;20055;-68
2022/06/22 06:33:37;;;;;;;0.77;0.77;;;22.00;59.50;;;;;;4193014;28;20483;-69
2022/06/22 06:36:06;;;;;;;0.13;0.13;;;22.00;59.40;;;;;;4193369;28;20060;-68
2022/06/22 06:38:35;;;;;;;0.10;0.10;;;22.00;59.40;;;;;;4193273;28;20086;-67
2022/06/22 06:41:04;;;;;;;0.00;0.00;;;22.10;59.50;;;;;;4193704;28;20053;-69
2022/06/22 06:43:48;;;;;;;0.00;0.00;;;22.10;59.40;;;;;;4192923;28;20067;-68
2022/06/22 06:46:22;;;;;;;0.20;0.20;;;22.10;59.30;;;;;;4193210;28;20059;-69
2022/06/22 06:48:50;;;;;;;0.00;0.00;;;22.20;59.20;;;;;;4190345;28;20587;-69
2022/06/22 06:51:16;;;;;;;0.00;0.00;;;22.30;59.00;;;;;;4184993;28;20086;-69
2022/06/22 06:53:42;;;;;;;0.20;0.20;;;22.30;58.90;;;;;;4192258;28;20110;-69
2022/06/22 06:56:11;;;;;;;0.77;0.77;;;22.40;58.80;;;;;;4191868;28;20498;-69
2022/06/22 06:58:41;;;;;;;0.05;0.05;;;22.50;58.70;;;;;;4190779;28;20599;-69
2022/06/22 07:01:04;;;;;;;0.10;0.10;;;22.50;58.50;;;;;;4192898;28;20055;-69
2022/06/22 07:03:31;;;;;;;0.00;0.00;;;22.60;58.60;;;;;;4192550;28;20101;-68
2022/06/22 07:05:53;;;;;;;0.63;0.63;;;22.70;58.80;;;;;;4192609;28;20473;-68
2022/06/22 07:08:19;;;;;;;0.05;0.05;;;22.70;58.90;;;;;;4192718;28;20052;-67
2022/06/22 07:11:06;;;;;;;0.00;0.00;;;22.80;58.80;;;;;;4193011;28;20053;-68
2022/06/22 07:13:32;;;;;;;0.52;0.52;;;22.90;59.40;;;;;;4192219;28;20055;-68
2022/06/22 07:15:58;;;;;;;0.70;0.70;;;22.90;59.30;;;;;;4192802;28;20054;-69
2022/06/22 07:18:28;;;;;;;0.15;0.15;;;22.90;59.50;;;;;;4191251;28;20407;-68
2022/06/22 07:20:55;;;;;;;10.63;3.25;;;23.00;59.40;;;;;;4192726;28;20040;-68
2022/06/22 07:23:22;;;;;;;0.00;0.00;;;23.00;59.00;;;;;;4191442;28;20118;-70
2022/06/22 07:25:47;;;;;;;0.00;0.00;;;23.00;59.20;;;;;;4192170;28;20048;-70
2022/06/22 07:28:16;;;;;;;0.20;0.20;;;23.10;59.40;;;;;;4190926;28;20544;-69
2022/06/22 07:30:43;;;;;;;0.00;0.00;;;23.10;59.60;;;;;;4191048;28;20060;-71
2022/06/22 07:33:13;;;;;;;0.00;0.00;;;23.10;59.80;;;;;;4190226;28;20074;-69
2022/06/22 07:35:41;;;;;;;3.30;2.17;;;23.10;59.80;;;;;;4192127;28;20102;-69
2022/06/22 07:38:08;;;;;;;0.10;0.10;;;23.10;59.80;;;;;;4191791;28;20052;-69
2022/06/22 07:40:32;;;;;;;0.80;0.80;;;23.10;59.70;;;;;;4192178;28;20066;-69
2022/06/22 07:42:57;;;;;;;0.00;0.00;;;23.10;59.60;;;;;;4192662;28;20062;-70
2022/06/22 07:45:23;;;;;;;0.70;0.70;;;23.10;59.60;;;;;;4192395;28;20399;-70
2022/06/22 07:48:02;;;;;;;0.00;0.00;;;23.10;59.40;;;;;;4192405;28;20234;-69
2022/06/22 07:50:28;;;;;;;0.10;0.10;;;23.10;59.40;;;;;;4192137;28;20052;-70
2022/06/22 07:52:56;;;;;;;0.00;0.00;;;23.10;59.30;;;;;;4179806;28;20402;-70
2022/06/22 07:55:31;;;;;;;0.00;0.00;;;23.10;59.30;;;;;;4175930;28;20045;-70
2022/06/22 07:58:15;;;;;;;0.00;0.00;;;23.10;59.30;;;;;;4158722;28;20111;-71
2022/06/22 08:00:39;;;;;;;0.10;0.10;;;23.10;59.20;;;;;;4158551;28;20049;-70
2022/06/22 08:03:10;;;;;;;0.00;0.00;;;23.10;59.20;;;;;;4158945;28;20445;-70
2022/06/22 08:05:35;;;;;;;0.00;0.00;;;23.00;59.20;;;;;;4158481;28;20523;-69
2022/06/22 08:08:03;;;;;;;0.00;0.00;;;23.00;59.20;;;;;;4158986;28;20416;-70
2022/06/22 08:10:31;;;;;;;0.00;0.00;;;23.00;59.10;;;;;;4174490;28;20045;-71
2022/06/22 08:13:02;;;;;;;0.00;0.00;;;23.00;59.20;;;;;;4173465;28;20059;-70
2022/06/22 08:15:24;;;;;;;;;;;23.00;59.20;;;;;;4175460;28;20472;-69
2022/06/22 08:17:50;;;;;;;0.00;0.00;;;23.00;59.20;;;;;;4185353;28;20385;-70
2022/06/22 08:20:15;;;;;;;0.30;0.30;;;23.00;59.20;;;;;;4191680;28;20578;-70
2022/06/22 08:22:37;;;;;;;0.43;0.43;;;23.00;58.90;;;;;;4191863;28;20078;-68
2022/06/22 08:25:04;;;;;;;0.00;0.00;;;23.00;58.90;;;;;;4190847;28;20460;-69
2022/06/22 08:27:29;;;;;;;0.00;0.00;;;23.00;59.20;;;;;;4190110;28;20056;-68
2022/06/22 08:29:53;;;;;;;0.63;0.63;;;23.00;59.00;;;;;;4192055;28;20102;-68
2022/06/22 08:32:23;;;;;;;0.45;0.38;;;23.00;59.50;;;;;;4157109;28;20077;-69
2022/06/22 08:34:52;;;;;;;0.00;0.00;;;23.00;59.90;;;;;;4158507;28;20041;-69
2022/06/22 08:37:19;;;;;;;0.00;0.00;;;23.00;60.20;;;;;;4158804;28;20090;-69
2022/06/22 08:39:48;;;;;;;0.05;0.05;;;23.00;60.10;;;;;;4158997;28;20127;-69
2022/06/22 08:42:24;;;;;;;0.10;0.10;;;23.00;59.80;;;;;;4157367;28;20104;-69
2022/06/22 08:45:00;;;;;;;0.00;0.00;;;23.10;59.90;;;;;;4186285;28;20055;-69
2022/06/22 08:47:58;;;;;;;0.00;0.00;;;23.00;59.80;;;;;;4190420;28;20490;-69
2022/06/22 08:50:42;;;;;;;0.00;0.00;;;23.10;59.90;;;;;;4191353;28;20066;-68
2022/06/22 08:53:19;;;;;;;0.32;0.32;;;23.00;59.80;;;;;;4189744;28;20332;-69
2022/06/22 08:55:58;;;;;;;0.00;0.00;;;23.00;59.60;;;;;;4191538;28;20097;-69
2022/06/22 08:58:41;;;;;;;0.10;0.10;;;23.10;59.70;;;;;;4190229;28;20051;-69
2022/06/22 09:01:10;;;;;;;0.00;0.00;;;23.10;59.50;;;;;;4191592;28;20150;-69
2022/06/22 09:04:12;;;;;;;0.00;0.00;;;23.10;59.30;;;;;;4190973;28;20074;-68
2022/06/22 09:07:01;;;;;;;0.00;0.00;;;23.10;59.10;;;;;;4191276;28;20082;-68
2022/06/22 09:09:42;;;;;;;0.00;0.00;;;23.10;59.00;;;;;;4158538;28;20053;-69
2022/06/22 09:12:17;;;;;;;0.38;0.38;;;23.20;59.00;;;;;;4159189;28;20049;-68
2022/06/22 09:15:13;;;;;;;0.00;0.00;;;23.20;58.90;;;;;;4170075;28;20106;-68
2022/06/22 09:17:59;;;;;;;0.00;0.00;;;23.20;58.60;;;;;;4170548;28;20135;-68
2022/06/22 09:20:55;;;;;;;0.00;0.00;;;23.30;58.50;;;;;;4193818;28;20506;-69
2022/06/22 09:23:29;;;;;;;0.00;0.00;;;23.30;58.50;;;;;;4112092;28;20057;-67
2022/06/22 09:26:05;;;;;;;0.00;0.00;;;23.30;58.40;;;;;;4190035;28;20505;-69
2022/06/22 09:28:35;;;;;;;0.00;0.00;;;23.30;58.40;;;;;;4193708;28;20505;-67
2022/06/22 09:31:26;;;;;;;0.10;0.10;;;23.30;58.30;;;;;;4193598;28;20052;-68
2022/06/22 09:34:01;;;;;;;0.00;0.00;;;23.40;58.30;;;;;;4176254;28;20099;-69
2022/06/22 09:36:47;;;;;;;0.03;0.03;;;23.40;58.20;;;;;;4144387;28;20481;-68
2022/06/22 09:39:41;;;;;;;0.00;0.00;;;23.40;58.60;;;;;;4144260;28;20046;-69
2022/06/22 09:42:45;;;;;;;0.00;0.00;;;23.40;58.00;;;;;;4175653;28;20048;-69
2022/06/22 09:45:26;;;;;;;0.00;0.00;;;23.50;57.80;;;;;;4143866;28;20493;-69
2022/06/22 09:48:20;;;;;;;0.30;0.30;;;23.40;57.40;;;;;;4176049;28;20045;-69
2022/06/22 09:51:00;;;;;;;0.00;0.00;;;23.50;56.90;;;;;;4172603;28;20111;-69
2022/06/22 09:53:57;;;;;;;1.45;0.90;;;23.50;57.00;;;;;;4176701;28;20503;-69
2022/06/22 09:56:34;;;;;;;0.00;0.00;;;23.60;57.30;;;;;;4176811;28;20052;-68
2022/06/22 09:59:34;;;;;;;0.20;0.20;;;23.60;57.30;;;;;;4177182;28;20182;-69
2022/06/22 10:02:08;;;;;;;0.38;0.38;;;23.60;57.00;;;;;;4177323;28;20164;-68
2022/06/22 10:05:19;;;;;;;0.00;0.00;;;23.60;56.50;;;;;;4176813;28;20551;-68
2022/06/22 10:08:08;;;;;;;0.00;0.00;;;23.70;56.70;;;;;;4193301;28;20052;-67
2022/06/22 10:10:42;;;;;;;0.00;0.00;;;23.70;56.90;;;;;;4193123;28;20167;-66
2022/06/22 10:13:31;;;;;;;0.00;0.00;;;23.70;56.50;;;;;;4193242;28;20059;-67
2022/06/22 10:16:30;;;;;;;0.17;0.17;;;23.70;56.50;;;;;;4177234;28;20059;-68
2022/06/22 10:19:06;;;;;;;0.00;0.00;;;23.70;56.50;;;;;;4158833;28;20045;-68
2022/06/22 10:21:46;;;;;;;26.63;1.45;;;23.70;56.50;;;;;;4176479;28;20045;-67
2022/06/22 10:24:23;;;;;;;0.32;0.30;;;23.70;56.50;;;;;;4174933;28;20061;-67
2022/06/22 10:27:08;;;;;;;0.10;0.10;;;23.80;56.00;;;;;;4174077;28;20151;-67
2022/06/22 10:29:46;;;;;;;0.00;0.00;;;23.70;56.10;;;;;;4150480;28;20076;-68
2022/06/22 10:32:35;;;;;;;0.00;0.00;;;23.70;56.10;;;;;;4152638;28;20053;-68
2022/06/22 10:35:03;;;;;;;0.10;0.10;;;23.80;56.10;;;;;;4157364;28;20053;-67
2022/06/22 10:37:44;;;;;;;0.10;0.10;;;23.70;55.90;;;;;;4141607;28;20076;-67
2022/06/22 10:46:12;;;;;;;0.00;0.00;;;23.80;56.40;;;;;;4177098;28;20049;-68
2022/06/22 10:49:02;;;;;;;0.00;0.00;;;23.80;55.60;;;;;;4193131;28;20068;-66
2022/06/22 10:51:43;;;;;;;0.00;0.00;;;23.90;55.50;;;;;;4193515;28;20048;-69
2022/06/22 10:54:31;;;;;;;0.00;0.00;;;23.90;55.40;;;;;;4191213;28;20287;-69
2022/06/22 10:57:06;;;;;;;0.10;0.10;;;23.90;55.30;;;;;;4178100;28;20095;-69
2022/06/22 11:00:03;;;;;;;0.00;0.00;;;23.90;55.20;;;;;;4193322;28;20060;-69
2022/06/22 11:02:56;;;;;;;0.03;0.03;;;23.90;55.10;;;;;;4190619;28;20078;-69
2022/06/22 11:05:37;;;;;;;0.00;0.00;;;24.00;55.10;;;;;;4158229;28;20104;-68
2022/06/22 11:08:29;;;;;;;0.00;0.00;;;24.00;55.10;;;;;;4159455;28;20436;-68
2022/06/22 11:11:08;;;;;;;0.00;0.00;;;24.00;55.10;;;;;;4183170;28;20076;-68
2022/06/22 11:13:55;;;;;;;0.00;0.00;;;24.00;55.00;;;;;;4159597;28;20041;-68
2022/06/22 11:16:39;;;;;;;0.10;0.10;;;24.10;55.10;;;;;;4159339;28;20088;-68
2022/06/22 11:19:33;;;;;;;0.00;0.00;;;24.10;55.00;;;;;;4143391;28;20132;-69
2022/06/22 11:22:14;;;;;;;0.52;0.52;;;24.10;55.00;;;;;;4159878;28;20102;-69
2022/06/22 11:25:08;;;;;;;13.93;1.30;;;24.10;55.00;;;;;;4159630;28;20045;-68
2022/06/22 11:33:38;;;;;;;0.00;0.00;;;24.20;54.90;;;;;;4176305;28;20387;-69
2022/06/22 11:36:20;;;;;;;0.95;0.95;;;24.20;54.90;;;;;;4174972;28;20052;-70
2022/06/22 11:39:05;;;;;;;0.05;0.05;;;24.20;54.60;;;;;;4188377;28;20086;-69
2022/06/22 11:41:49;;;;;;;21.38;1.15;;;24.30;54.80;;;;;;4192843;28;20055;-69
2022/06/22 11:45:49;;;;;;;0.10;0.10;;;24.30;54.70;;;;;;4192337;28;20511;-68
2022/06/22 11:47:40;;;;;;;1.63;0.57;;;24.30;54.70;;;;;;4175775;28;20400;-69
2022/06/22 11:50:14;;;;;;;0.00;0.00;;;24.30;54.70;;;;;;4175371;28;20056;-69
2022/06/22 11:52:57;;;;;;;0.20;0.20;;;24.30;54.70;;;;;;4180873;28;20070;-69
2022/06/22 11:55:26;;;;;;;0.17;0.17;;;24.40;54.70;;;;;;4175923;28;20095;-69
2022/06/22 11:58:11;;;;;;;0.08;0.08;;;24.40;54.80;;;;;;4181241;28;20858;-69
2022/06/22 12:00:46;;;;;;;0.00;0.00;;;24.30;54.70;;;;;;4159298;28;20431;-69
2022/06/22 12:03:34;;;;;;;0.20;0.20;;;24.40;54.20;;;;;;4160841;28;20056;-69
2022/06/22 12:06:18;;;;;;;0.00;0.00;;;24.40;54.80;;;;;;4160189;28;20056;-69
2022/06/22 12:09:13;;;;;;;0.00;0.00;;;24.40;54.70;;;;;;4184859;28;20480;-69
2022/06/22 12:11:47;;;;;;;0.20;0.20;;;24.30;54.70;;;;;;4175967;28;20059;-69
2022/06/22 12:17:16;;;;;;;0.10;0.10;;;24.40;54.80;;;;;;4174688;28;20503;-69
2022/06/22 12:19:49;;;;;;;0.00;0.00;;;24.40;54.80;;;;;;4179906;28;20043;-70
2022/06/22 12:22:18;;;;;;;1.15;1.08;;;24.40;54.80;;;;;;4192360;28;20072;-69
2022/06/22 12:24:56;;;;;;;0.00;0.00;;;24.50;54.80;;;;;;4191172;28;20527;-70
2022/06/22 12:27:26;;;;;;;0.00;0.00;;;24.40;54.80;;;;;;4191258;28;20064;-69
2022/06/22 12:30:20;;;;;;;0.00;0.00;;;24.40;55.40;;;;;;4186143;28;20059;-69
2022/06/22 12:32:49;;;;;;;0.28;0.28;;;24.40;55.30;;;;;;4144304;28;20068;-70
2022/06/22 12:35:18;;;;;;;0.00;0.00;;;24.40;54.50;;;;;;4158985;28;20143;-70
2022/06/22 12:37:44;;;;;;;0.00;0.00;;;24.40;54.30;;;;;;4158985;28;20052;-70
2022/06/22 12:40:19;;;;;;;0.00;0.00;;;24.50;54.40;;;;;;4142304;28;20560;-70
2022/06/22 12:43:12;;;;;;;0.00;0.00;;;24.50;54.30;;;;;;4142823;28;20124;-70
2022/06/22 12:45:51;;;;;;;0.00;0.00;;;24.50;54.30;;;;;;4191399;28;20052;-69
2022/06/22 12:48:57;;;;;;;0.00;0.00;;;24.50;54.20;;;;;;4194397;28;20163;-69
2022/06/22 12:51:26;;;;;;;0.10;0.10;;;24.50;54.10;;;;;;4193920;28;20052;-64
2022/06/22 12:53:53;;;;;;;0.10;0.10;;;24.50;54.10;;;;;;4191737;28;20052;-64
2022/06/22 12:56:20;;;;;;;0.40;0.40;;;24.50;53.70;;;;;;4192684;28;20442;-64
2022/06/22 12:58:50;;;;;;;0.08;0.08;;;24.50;54.00;;;;;;4194778;28;20479;-64
2022/06/22 13:01:12;;;;;;;0.20;0.20;;;24.50;54.00;;;;;;4166675;28;20063;-64
2022/06/22 13:03:40;;;;;;;0.20;0.20;;;24.60;53.90;;;;;;4161261;28;20415;-64
2022/06/22 13:06:04;;;;;;;0.35;0.35;;;24.60;53.90;;;;;;4190934;28;20121;-64
2022/06/22 13:08:28;;;;;;;0.00;0.00;;;24.60;53.70;;;;;;4186303;28;20053;-64
2022/06/22 13:10:57;;;;;;;0.00;0.00;;;24.60;53.70;;;;;;4175491;28;20052;-64
2022/06/22 13:13:26;;;;;;;0.00;0.00;;;24.60;53.50;;;;;;4176301;28;20041;-64
2022/06/22 13:15:53;;;;;;;0.13;0.13;;;24.60;53.60;;;;;;4177654;28;20052;-64
2022/06/22 13:18:20;;;;;;;0.00;0.00;;;24.60;53.70;;;;;;4162512;28;20064;-64
2022/06/22 13:20:49;;;;;;;0.00;0.00;;;24.60;53.80;;;;;;4192972;28;20099;-65
2022/06/22 13:23:23;;;;;;;0.03;0.03;;;24.70;53.80;;;;;;4194969;28;20143;-64
2022/06/22 13:25:50;;;;;;;0.22;0.22;;;24.70;53.80;;;;;;4185167;28;20197;-64
2022/06/22 13:28:20;;;;;;;0.05;0.05;;;24.70;53.90;;;;;;4177212;28;20060;-64
2022/06/22 13:30:47;;;;;;;0.00;0.00;;;24.70;53.90;;;;;;4169034;28;20122;-64
2022/06/22 13:33:14;;;;;;;0.00;0.00;;;24.80;54.00;;;;;;4177739;28;20087;-64